Pointe-Lebel, Canada
Current Conditions -  °F | °C
As of 10:00 PM on Friday 19 Dec 2014 (Local Time) from CYBC Reporting Station
Clear Clear  
Wind Chill:   Ceiling: Unl
Heat Index: 18°   Visibility: 9mi
Dew Point:   Wind: 8mph
Humidity: 68%   Direction: 360°N
Pressure: 30.2"   Gusts: NA
Location:  49.15°N, 68.2°W
Report Text: CYBC 200300Z AUTO 36007KT 9SM CLR M08/M13 A3020 RMK SLP230
Loading
Personal Weather Stations






























Interactive Weather Map New forecast layout! Learn more

10-Day Weather Forecast

Advertisements
Track Severe Weather on mobile